sensor_id;sensor_type;location;lat;lon;timestamp;P1;durP1;ratioP1;P2;durP2;ratioP2
21420;SDS011;10871;50.144;8.428;2022-12-07T00:01:12;27.90;;;15.13;;
21420;SDS011;10871;50.144;8.428;2022-12-07T00:03:40;26.92;;;14.43;;
21420;SDS011;10871;50.144;8.428;2022-12-07T00:06:07;25.02;;;15.05;;
21420;SDS011;10871;50.144;8.428;2022-12-07T00:08:34;28.73;;;16.40;;
21420;SDS011;10871;50.144;8.428;2022-12-07T00:11:01;26.63;;;15.40;;
21420;SDS011;10871;50.144;8.428;2022-12-07T00:13:29;25.77;;;15.00;;
21420;SDS011;10871;50.144;8.428;2022-12-07T00:15:55;27.92;;;14.93;;
21420;SDS011;10871;50.144;8.428;2022-12-07T00:18:21;24.17;;;13.90;;
21420;SDS011;10871;50.144;8.428;2022-12-07T00:20:48;24.33;;;14.63;;
21420;SDS011;10871;50.144;8.428;2022-12-07T00:23:14;23.17;;;13.90;;
21420;SDS011;10871;50.144;8.428;2022-12-07T00:25:40;25.48;;;14.43;;
21420;SDS011;10871;50.144;8.428;2022-12-07T00:28:07;23.08;;;13.43;;
21420;SDS011;10871;50.144;8.428;2022-12-07T00:30:36;25.55;;;13.60;;
21420;SDS011;10871;50.144;8.428;2022-12-07T00:33:02;23.95;;;14.13;;
21420;SDS011;10871;50.144;8.428;2022-12-07T00:35:29;25.30;;;14.38;;
21420;SDS011;10871;50.144;8.428;2022-12-07T00:37:55;22.02;;;13.82;;
21420;SDS011;10871;50.144;8.428;2022-12-07T00:40:21;25.25;;;14.73;;
21420;SDS011;10871;50.144;8.428;2022-12-07T00:42:48;26.25;;;14.10;;
21420;SDS011;10871;50.144;8.428;2022-12-07T00:45:14;26.17;;;15.02;;
21420;SDS011;10871;50.144;8.428;2022-12-07T00:47:40;28.77;;;15.00;;
21420;SDS011;10871;50.144;8.428;2022-12-07T00:50:07;27.42;;;15.00;;
21420;SDS011;10871;50.144;8.428;2022-12-07T00:52:33;27.38;;;15.82;;
21420;SDS011;10871;50.144;8.428;2022-12-07T00:54:59;30.88;;;16.73;;
21420;SDS011;10871;50.144;8.428;2022-12-07T00:57:26;25.35;;;14.38;;
21420;SDS011;10871;50.144;8.428;2022-12-07T00:59:52;26.42;;;14.80;;
21420;SDS011;10871;50.144;8.428;2022-12-07T01:02:21;25.63;;;14.50;;
21420;SDS011;10871;50.144;8.428;2022-12-07T01:04:48;23.95;;;14.30;;
21420;SDS011;10871;50.144;8.428;2022-12-07T01:07:14;23.50;;;13.35;;
21420;SDS011;10871;50.144;8.428;2022-12-07T01:09:41;25.35;;;14.55;;
21420;SDS011;10871;50.144;8.428;2022-12-07T01:12:07;25.23;;;14.55;;
21420;SDS011;10871;50.144;8.428;2022-12-07T01:14:33;26.00;;;14.85;;
21420;SDS011;10871;50.144;8.428;2022-12-07T01:17:00;25.10;;;14.32;;
21420;SDS011;10871;50.144;8.428;2022-12-07T01:19:26;25.75;;;14.02;;
21420;SDS011;10871;50.144;8.428;2022-12-07T01:21:52;24.67;;;14.10;;
21420;SDS011;10871;50.144;8.428;2022-12-07T01:24:19;23.73;;;14.10;;
21420;SDS011;10871;50.144;8.428;2022-12-07T01:26:45;22.35;;;13.43;;
21420;SDS011;10871;50.144;8.428;2022-12-07T01:29:11;23.42;;;13.55;;
21420;SDS011;10871;50.144;8.428;2022-12-07T01:31:38;24.90;;;13.30;;
21420;SDS011;10871;50.144;8.428;2022-12-07T01:34:04;23.15;;;13.15;;
21420;SDS011;10871;50.144;8.428;2022-12-07T01:36:31;20.15;;;12.57;;
21420;SDS011;10871;50.144;8.428;2022-12-07T01:39:00;21.98;;;12.90;;
21420;SDS011;10871;50.144;8.428;2022-12-07T01:41:28;22.00;;;12.52;;
21420;SDS011;10871;50.144;8.428;2022-12-07T01:46:40;21.15;;;12.82;;
21420;SDS011;10871;50.144;8.428;2022-12-07T01:49:08;23.08;;;12.65;;
21420;SDS011;10871;50.144;8.428;2022-12-07T01:51:36;20.98;;;12.10;;
21420;SDS011;10871;50.144;8.428;2022-12-07T01:54:04;22.90;;;12.75;;
21420;SDS011;10871;50.144;8.428;2022-12-07T01:56:30;20.77;;;12.18;;
21420;SDS011;10871;50.144;8.428;2022-12-07T01:58:58;21.85;;;11.35;;
21420;SDS011;10871;50.144;8.428;2022-12-07T02:01:26;21.25;;;12.20;;
21420;SDS011;10871;50.144;8.428;2022-12-07T02:03:52;21.40;;;12.23;;
21420;SDS011;10871;50.144;8.428;2022-12-07T02:06:20;21.92;;;11.75;;
21420;SDS011;10871;50.144;8.428;2022-12-07T02:08:48;20.80;;;11.60;;
21420;SDS011;10871;50.144;8.428;2022-12-07T02:11:14;22.55;;;11.32;;
21420;SDS011;10871;50.144;8.428;2022-12-07T02:13:41;20.42;;;10.75;;
21420;SDS011;10871;50.144;8.428;2022-12-07T02:16:21;20.58;;;11.25;;
21420;SDS011;10871;50.144;8.428;2022-12-07T02:24:02;20.85;;;12.43;;
21420;SDS011;10871;50.144;8.428;2022-12-07T02:31:26;23.27;;;12.68;;
21420;SDS011;10871;50.144;8.428;2022-12-07T02:33:57;23.05;;;13.20;;
21420;SDS011;10871;50.144;8.428;2022-12-07T02:36:28;23.83;;;13.38;;
21420;SDS011;10871;50.144;8.428;2022-12-07T02:39:04;23.40;;;12.95;;
21420;SDS011;10871;50.144;8.428;2022-12-07T02:41:33;23.15;;;13.35;;
21420;SDS011;10871;50.144;8.428;2022-12-07T02:44:02;26.85;;;14.82;;
21420;SDS011;10871;50.144;8.428;2022-12-07T02:46:31;24.83;;;13.55;;
21420;SDS011;10871;50.144;8.428;2022-12-07T02:48:58;23.90;;;12.02;;
21420;SDS011;10871;50.144;8.428;2022-12-07T02:51:29;23.35;;;12.98;;
21420;SDS011;10871;50.144;8.428;2022-12-07T02:53:55;23.33;;;11.82;;
21420;SDS011;10871;50.144;8.428;2022-12-07T03:01:33;18.30;;;10.63;;
21420;SDS011;10871;50.144;8.428;2022-12-07T03:06:36;16.75;;;9.95;;
21420;SDS011;10871;50.144;8.428;2022-12-07T03:09:14;16.75;;;9.60;;
21420;SDS011;10871;50.144;8.428;2022-12-07T03:11:48;18.25;;;10.68;;
21420;SDS011;10871;50.144;8.428;2022-12-07T03:14:21;19.63;;;10.65;;
21420;SDS011;10871;50.144;8.428;2022-12-07T03:16:52;16.13;;;8.07;;
21420;SDS011;10871;50.144;8.428;2022-12-07T03:19:19;19.98;;;9.90;;
21420;SDS011;10871;50.144;8.428;2022-12-07T03:21:49;20.15;;;10.95;;
21420;SDS011;10871;50.144;8.428;2022-12-07T03:24:18;20.45;;;11.75;;
21420;SDS011;10871;50.144;8.428;2022-12-07T03:26:49;21.98;;;11.50;;
21420;SDS011;10871;50.144;8.428;2022-12-07T03:29:19;22.17;;;11.25;;
21420;SDS011;10871;50.144;8.428;2022-12-07T03:31:48;21.52;;;12.02;;
21420;SDS011;10871;50.144;8.428;2022-12-07T03:34:31;22.10;;;11.45;;
21420;SDS011;10871;50.144;8.428;2022-12-07T03:37:12;20.40;;;11.68;;
21420;SDS011;10871;50.144;8.428;2022-12-07T03:42:13;19.70;;;11.02;;
21420;SDS011;10871;50.144;8.428;2022-12-07T03:44:39;18.35;;;11.23;;
21420;SDS011;10871;50.144;8.428;2022-12-07T03:47:10;20.15;;;11.13;;
21420;SDS011;10871;50.144;8.428;2022-12-07T03:49:45;17.15;;;10.25;;
21420;SDS011;10871;50.144;8.428;2022-12-07T03:52:22;18.42;;;11.07;;
21420;SDS011;10871;50.144;8.428;2022-12-07T03:54:56;18.25;;;10.85;;
21420;SDS011;10871;50.144;8.428;2022-12-07T03:57:24;17.83;;;10.65;;
21420;SDS011;10871;50.144;8.428;2022-12-07T03:59:51;19.20;;;11.15;;
21420;SDS011;10871;50.144;8.428;2022-12-07T04:02:18;19.30;;;11.57;;
21420;SDS011;10871;50.144;8.428;2022-12-07T04:04:44;20.02;;;11.70;;
21420;SDS011;10871;50.144;8.428;2022-12-07T04:07:10;19.80;;;12.02;;
21420;SDS011;10871;50.144;8.428;2022-12-07T04:09:37;23.17;;;12.10;;
21420;SDS011;10871;50.144;8.428;2022-12-07T04:12:03;17.73;;;10.82;;
21420;SDS011;10871;50.144;8.428;2022-12-07T04:14:30;21.10;;;11.93;;
21420;SDS011;10871;50.144;8.428;2022-12-07T04:16:57;21.88;;;12.10;;
21420;SDS011;10871;50.144;8.428;2022-12-07T04:19:25;19.00;;;11.68;;
21420;SDS011;10871;50.144;8.428;2022-12-07T04:21:52;21.83;;;12.02;;
21420;SDS011;10871;50.144;8.428;2022-12-07T04:24:18;18.60;;;11.68;;
21420;SDS011;10871;50.144;8.428;2022-12-07T04:26:45;21.25;;;12.35;;
21420;SDS011;10871;50.144;8.428;2022-12-07T04:29:12;19.35;;;11.85;;
21420;SDS011;10871;50.144;8.428;2022-12-07T04:31:39;22.73;;;12.48;;
21420;SDS011;10871;50.144;8.428;2022-12-07T04:34:05;22.58;;;12.98;;
21420;SDS011;10871;50.144;8.428;2022-12-07T04:36:32;26.15;;;13.45;;
21420;SDS011;10871;50.144;8.428;2022-12-07T04:38:58;24.35;;;13.73;;
21420;SDS011;10871;50.144;8.428;2022-12-07T04:41:25;23.77;;;13.68;;
21420;SDS011;10871;50.144;8.428;2022-12-07T04:44:00;28.20;;;14.25;;
21420;SDS011;10871;50.144;8.428;2022-12-07T04:46:27;22.77;;;13.07;;
21420;SDS011;10871;50.144;8.428;2022-12-07T04:48:54;23.38;;;13.02;;
21420;SDS011;10871;50.144;8.428;2022-12-07T04:51:22;23.15;;;14.18;;
21420;SDS011;10871;50.144;8.428;2022-12-07T04:53:48;23.50;;;14.25;;
21420;SDS011;10871;50.144;8.428;2022-12-07T04:56:15;24.95;;;13.73;;
21420;SDS011;10871;50.144;8.428;2022-12-07T04:58:42;24.50;;;13.60;;
21420;SDS011;10871;50.144;8.428;2022-12-07T05:01:09;22.05;;;13.05;;
21420;SDS011;10871;50.144;8.428;2022-12-07T05:03:36;24.63;;;14.05;;
21420;SDS011;10871;50.144;8.428;2022-12-07T05:06:02;23.25;;;13.55;;
21420;SDS011;10871;50.144;8.428;2022-12-07T05:08:28;25.58;;;13.20;;
21420;SDS011;10871;50.144;8.428;2022-12-07T05:10:55;22.30;;;13.68;;
21420;SDS011;10871;50.144;8.428;2022-12-07T05:13:21;22.55;;;13.30;;
21420;SDS011;10871;50.144;8.428;2022-12-07T05:15:48;25.08;;;14.23;;
21420;SDS011;10871;50.144;8.428;2022-12-07T05:18:14;24.67;;;14.45;;
21420;SDS011;10871;50.144;8.428;2022-12-07T05:20:41;24.33;;;14.38;;
21420;SDS011;10871;50.144;8.428;2022-12-07T05:23:08;24.55;;;13.88;;
21420;SDS011;10871;50.144;8.428;2022-12-07T05:25:34;23.27;;;13.23;;
21420;SDS011;10871;50.144;8.428;2022-12-07T05:28:01;25.48;;;14.15;;
21420;SDS011;10871;50.144;8.428;2022-12-07T05:30:27;24.73;;;14.15;;
21420;SDS011;10871;50.144;8.428;2022-12-07T05:32:54;22.77;;;14.15;;
21420;SDS011;10871;50.144;8.428;2022-12-07T05:35:20;25.42;;;14.75;;
21420;SDS011;10871;50.144;8.428;2022-12-07T05:37:46;22.70;;;13.63;;
21420;SDS011;10871;50.144;8.428;2022-12-07T05:40:13;23.15;;;13.38;;
21420;SDS011;10871;50.144;8.428;2022-12-07T05:42:40;26.75;;;14.68;;
21420;SDS011;10871;50.144;8.428;2022-12-07T05:45:07;20.77;;;12.45;;
21420;SDS011;10871;50.144;8.428;2022-12-07T05:47:34;22.25;;;13.43;;
21420;SDS011;10871;50.144;8.428;2022-12-07T05:50:00;22.08;;;14.50;;
21420;SDS011;10871;50.144;8.428;2022-12-07T05:52:27;24.38;;;13.50;;
21420;SDS011;10871;50.144;8.428;2022-12-07T05:54:53;21.65;;;13.90;;
21420;SDS011;10871;50.144;8.428;2022-12-07T05:57:20;24.27;;;15.05;;
21420;SDS011;10871;50.144;8.428;2022-12-07T05:59:46;23.27;;;13.65;;
21420;SDS011;10871;50.144;8.428;2022-12-07T06:02:13;25.50;;;14.35;;
21420;SDS011;10871;50.144;8.428;2022-12-07T06:04:41;24.27;;;14.25;;
21420;SDS011;10871;50.144;8.428;2022-12-07T06:07:08;23.98;;;14.30;;
21420;SDS011;10871;50.144;8.428;2022-12-07T06:09:35;22.90;;;13.93;;
21420;SDS011;10871;50.144;8.428;2022-12-07T06:12:02;23.10;;;13.70;;
21420;SDS011;10871;50.144;8.428;2022-12-07T06:14:47;24.25;;;14.30;;
21420;SDS011;10871;50.144;8.428;2022-12-07T06:17:14;24.55;;;13.90;;
21420;SDS011;10871;50.144;8.428;2022-12-07T06:19:40;23.52;;;14.25;;
21420;SDS011;10871;50.144;8.428;2022-12-07T06:22:07;22.95;;;13.82;;
21420;SDS011;10871;50.144;8.428;2022-12-07T06:24:35;22.80;;;13.65;;
21420;SDS011;10871;50.144;8.428;2022-12-07T06:27:01;24.33;;;14.30;;
21420;SDS011;10871;50.144;8.428;2022-12-07T06:29:28;23.30;;;13.50;;
21420;SDS011;10871;50.144;8.428;2022-12-07T06:31:54;23.70;;;14.30;;
21420;SDS011;10871;50.144;8.428;2022-12-07T06:34:21;22.02;;;13.68;;
21420;SDS011;10871;50.144;8.428;2022-12-07T06:36:51;24.83;;;14.30;;
21420;SDS011;10871;50.144;8.428;2022-12-07T06:39:19;23.67;;;13.48;;
21420;SDS011;10871;50.144;8.428;2022-12-07T06:41:46;24.30;;;13.70;;
21420;SDS011;10871;50.144;8.428;2022-12-07T06:44:13;25.58;;;14.82;;
21420;SDS011;10871;50.144;8.428;2022-12-07T06:46:39;20.15;;;12.93;;
21420;SDS011;10871;50.144;8.428;2022-12-07T06:49:06;20.95;;;12.98;;
21420;SDS011;10871;50.144;8.428;2022-12-07T06:51:33;22.05;;;13.77;;
21420;SDS011;10871;50.144;8.428;2022-12-07T06:54:03;21.95;;;12.98;;
21420;SDS011;10871;50.144;8.428;2022-12-07T06:56:29;20.70;;;11.95;;
21420;SDS011;10871;50.144;8.428;2022-12-07T06:58:56;20.67;;;13.05;;
21420;SDS011;10871;50.144;8.428;2022-12-07T07:01:22;20.85;;;12.10;;
21420;SDS011;10871;50.144;8.428;2022-12-07T07:03:48;21.50;;;12.63;;
21420;SDS011;10871;50.144;8.428;2022-12-07T07:06:15;26.08;;;13.75;;
21420;SDS011;10871;50.144;8.428;2022-12-07T07:08:41;19.63;;;12.65;;
21420;SDS011;10871;50.144;8.428;2022-12-07T07:11:08;19.67;;;12.85;;
21420;SDS011;10871;50.144;8.428;2022-12-07T07:13:34;18.35;;;12.57;;
21420;SDS011;10871;50.144;8.428;2022-12-07T07:16:01;20.95;;;11.77;;
21420;SDS011;10871;50.144;8.428;2022-12-07T07:18:27;19.98;;;12.52;;
21420;SDS011;10871;50.144;8.428;2022-12-07T07:20:54;19.35;;;11.98;;
21420;SDS011;10871;50.144;8.428;2022-12-07T07:23:20;20.85;;;12.77;;
21420;SDS011;10871;50.144;8.428;2022-12-07T07:25:47;22.23;;;12.50;;
21420;SDS011;10871;50.144;8.428;2022-12-07T07:28:14;28.67;;;14.05;;
21420;SDS011;10871;50.144;8.428;2022-12-07T07:30:40;18.55;;;12.10;;
21420;SDS011;10871;50.144;8.428;2022-12-07T07:33:07;16.65;;;10.82;;
21420;SDS011;10871;50.144;8.428;2022-12-07T07:35:33;18.85;;;11.30;;
21420;SDS011;10871;50.144;8.428;2022-12-07T07:38:00;17.33;;;9.70;;
21420;SDS011;10871;50.144;8.428;2022-12-07T07:40:26;15.25;;;10.00;;
21420;SDS011;10871;50.144;8.428;2022-12-07T07:42:55;13.25;;;9.38;;
21420;SDS011;10871;50.144;8.428;2022-12-07T07:45:22;13.93;;;8.98;;
21420;SDS011;10871;50.144;8.428;2022-12-07T07:47:48;16.67;;;9.43;;
21420;SDS011;10871;50.144;8.428;2022-12-07T07:50:15;17.60;;;9.23;;
21420;SDS011;10871;50.144;8.428;2022-12-07T07:52:42;12.40;;;8.70;;
21420;SDS011;10871;50.144;8.428;2022-12-07T07:55:08;12.80;;;7.97;;
21420;SDS011;10871;50.144;8.428;2022-12-07T07:57:36;13.02;;;8.18;;
21420;SDS011;10871;50.144;8.428;2022-12-07T08:00:06;10.95;;;7.95;;
21420;SDS011;10871;50.144;8.428;2022-12-07T08:02:37;11.43;;;8.10;;
21420;SDS011;10871;50.144;8.428;2022-12-07T08:05:04;12.65;;;7.93;;
21420;SDS011;10871;50.144;8.428;2022-12-07T08:07:30;12.05;;;7.95;;
21420;SDS011;10871;50.144;8.428;2022-12-07T08:09:57;13.52;;;7.85;;
21420;SDS011;10871;50.144;8.428;2022-12-07T08:12:23;13.48;;;7.93;;
21420;SDS011;10871;50.144;8.428;2022-12-07T08:14:50;11.45;;;7.70;;
21420;SDS011;10871;50.144;8.428;2022-12-07T08:17:16;10.90;;;7.63;;
21420;SDS011;10871;50.144;8.428;2022-12-07T08:19:42;11.85;;;7.95;;
21420;SDS011;10871;50.144;8.428;2022-12-07T08:22:08;12.13;;;7.72;;
21420;SDS011;10871;50.144;8.428;2022-12-07T08:24:35;13.02;;;9.02;;
21420;SDS011;10871;50.144;8.428;2022-12-07T08:27:02;11.68;;;8.52;;
21420;SDS011;10871;50.144;8.428;2022-12-07T08:29:28;11.63;;;7.60;;
21420;SDS011;10871;50.144;8.428;2022-12-07T08:31:55;9.98;;;7.65;;
21420;SDS011;10871;50.144;8.428;2022-12-07T08:34:21;10.25;;;7.40;;
21420;SDS011;10871;50.144;8.428;2022-12-07T08:36:48;10.80;;;7.80;;
21420;SDS011;10871;50.144;8.428;2022-12-07T08:39:14;10.43;;;7.97;;
21420;SDS011;10871;50.144;8.428;2022-12-07T08:41:57;12.47;;;8.07;;
21420;SDS011;10871;50.144;8.428;2022-12-07T08:44:24;12.60;;;7.45;;
21420;SDS011;10871;50.144;8.428;2022-12-07T08:46:54;9.05;;;7.30;;
21420;SDS011;10871;50.144;8.428;2022-12-07T08:49:31;9.73;;;7.82;;
21420;SDS011;10871;50.144;8.428;2022-12-07T08:51:58;9.75;;;7.43;;
21420;SDS011;10871;50.144;8.428;2022-12-07T08:54:25;8.63;;;6.78;;
21420;SDS011;10871;50.144;8.428;2022-12-07T08:56:51;9.10;;;7.43;;
21420;SDS011;10871;50.144;8.428;2022-12-07T08:59:25;9.00;;;6.75;;
21420;SDS011;10871;50.144;8.428;2022-12-07T09:01:52;10.27;;;7.85;;
21420;SDS011;10871;50.144;8.428;2022-12-07T09:04:18;7.68;;;6.85;;
21420;SDS011;10871;50.144;8.428;2022-12-07T09:06:46;7.65;;;6.70;;
21420;SDS011;10871;50.144;8.428;2022-12-07T09:09:13;8.27;;;7.40;;
21420;SDS011;10871;50.144;8.428;2022-12-07T09:11:40;8.05;;;6.75;;
21420;SDS011;10871;50.144;8.428;2022-12-07T09:14:06;8.00;;;6.25;;
21420;SDS011;10871;50.144;8.428;2022-12-07T09:16:32;7.93;;;7.13;;
21420;SDS011;10871;50.144;8.428;2022-12-07T09:18:59;9.63;;;7.28;;
21420;SDS011;10871;50.144;8.428;2022-12-07T09:21:25;6.53;;;5.93;;
21420;SDS011;10871;50.144;8.428;2022-12-07T09:23:52;7.57;;;6.63;;
21420;SDS011;10871;50.144;8.428;2022-12-07T09:26:18;8.18;;;6.18;;
21420;SDS011;10871;50.144;8.428;2022-12-07T09:28:44;7.35;;;6.55;;
21420;SDS011;10871;50.144;8.428;2022-12-07T09:31:11;7.43;;;6.78;;
21420;SDS011;10871;50.144;8.428;2022-12-07T09:33:53;7.18;;;5.80;;
21420;SDS011;10871;50.144;8.428;2022-12-07T09:36:20;8.32;;;6.35;;
21420;SDS011;10871;50.144;8.428;2022-12-07T09:38:46;7.13;;;6.10;;
21420;SDS011;10871;50.144;8.428;2022-12-07T09:41:12;6.72;;;6.03;;
21420;SDS011;10871;50.144;8.428;2022-12-07T09:43:39;6.05;;;5.45;;
21420;SDS011;10871;50.144;8.428;2022-12-07T09:46:06;6.18;;;5.32;;
21420;SDS011;10871;50.144;8.428;2022-12-07T09:48:36;6.07;;;5.47;;
21420;SDS011;10871;50.144;8.428;2022-12-07T09:51:03;7.40;;;5.50;;
21420;SDS011;10871;50.144;8.428;2022-12-07T09:53:37;6.95;;;5.05;;
21420;SDS011;10871;50.144;8.428;2022-12-07T09:56:04;7.85;;;5.00;;
21420;SDS011;10871;50.144;8.428;2022-12-07T09:58:31;5.75;;;5.07;;
21420;SDS011;10871;50.144;8.428;2022-12-07T10:01:17;9.93;;;5.63;;
21420;SDS011;10871;50.144;8.428;2022-12-07T10:03:47;6.93;;;5.40;;
21420;SDS011;10871;50.144;8.428;2022-12-07T10:06:15;6.30;;;5.70;;
21420;SDS011;10871;50.144;8.428;2022-12-07T10:08:41;8.50;;;3.90;;
21420;SDS011;10871;50.144;8.428;2022-12-07T10:11:09;5.43;;;4.20;;
21420;SDS011;10871;50.144;8.428;2022-12-07T10:16:06;5.93;;;3.85;;
21420;SDS011;10871;50.144;8.428;2022-12-07T10:18:34;8.43;;;3.60;;
21420;SDS011;10871;50.144;8.428;2022-12-07T10:23:30;4.22;;;2.85;;
21420;SDS011;10871;50.144;8.428;2022-12-07T10:25:56;4.82;;;2.67;;
21420;SDS011;10871;50.144;8.428;2022-12-07T10:28:22;5.22;;;2.88;;
21420;SDS011;10871;50.144;8.428;2022-12-07T10:33:32;6.70;;;3.35;;
21420;SDS011;10871;50.144;8.428;2022-12-07T10:35:59;5.50;;;3.13;;
21420;SDS011;10871;50.144;8.428;2022-12-07T10:38:27;6.45;;;3.50;;
21420;SDS011;10871;50.144;8.428;2022-12-07T10:41:06;6.72;;;3.70;;
21420;SDS011;10871;50.144;8.428;2022-12-07T10:43:33;3.40;;;2.70;;
21420;SDS011;10871;50.144;8.428;2022-12-07T10:51:27;7.07;;;3.15;;
21420;SDS011;10871;50.144;8.428;2022-12-07T11:04:43;5.82;;;3.22;;
21420;SDS011;10871;50.144;8.428;2022-12-07T11:07:22;4.32;;;3.08;;
21420;SDS011;10871;50.144;8.428;2022-12-07T11:09:59;5.88;;;3.00;;
21420;SDS011;10871;50.144;8.428;2022-12-07T11:17:43;4.40;;;2.78;;
21420;SDS011;10871;50.144;8.428;2022-12-07T11:28:34;3.58;;;2.47;;
21420;SDS011;10871;50.144;8.428;2022-12-07T11:34:00;6.43;;;2.65;;
21420;SDS011;10871;50.144;8.428;2022-12-07T11:36:39;5.18;;;3.17;;
21420;SDS011;10871;50.144;8.428;2022-12-07T11:41:45;5.13;;;3.08;;
21420;SDS011;10871;50.144;8.428;2022-12-07T11:46:58;6.25;;;2.80;;
21420;SDS011;10871;50.144;8.428;2022-12-07T11:52:22;8.18;;;3.47;;
21420;SDS011;10871;50.144;8.428;2022-12-07T11:54:51;4.95;;;2.45;;
21420;SDS011;10871;50.144;8.428;2022-12-07T12:00:15;3.70;;;2.67;;
21420;SDS011;10871;50.144;8.428;2022-12-07T12:02:51;3.92;;;2.20;;
21420;SDS011;10871;50.144;8.428;2022-12-07T12:05:19;6.00;;;2.63;;
21420;SDS011;10871;50.144;8.428;2022-12-07T12:07:49;5.22;;;2.55;;
21420;SDS011;10871;50.144;8.428;2022-12-07T12:10:41;5.40;;;2.80;;
21420;SDS011;10871;50.144;8.428;2022-12-07T12:21:12;5.22;;;2.53;;
21420;SDS011;10871;50.144;8.428;2022-12-07T12:26:16;3.10;;;2.30;;
21420;SDS011;10871;50.144;8.428;2022-12-07T12:29:06;7.10;;;2.38;;
21420;SDS011;10871;50.144;8.428;2022-12-07T12:31:36;3.42;;;2.00;;
21420;SDS011;10871;50.144;8.428;2022-12-07T12:36:50;3.10;;;1.95;;
21420;SDS011;10871;50.144;8.428;2022-12-07T12:39:17;4.43;;;2.60;;
21420;SDS011;10871;50.144;8.428;2022-12-07T12:46:48;3.97;;;2.17;;
21420;SDS011;10871;50.144;8.428;2022-12-07T12:51:43;4.20;;;2.30;;
21420;SDS011;10871;50.144;8.428;2022-12-07T12:54:11;5.38;;;2.65;;
21420;SDS011;10871;50.144;8.428;2022-12-07T12:56:43;6.95;;;2.13;;
21420;SDS011;10871;50.144;8.428;2022-12-07T13:04:24;3.97;;;2.45;;
21420;SDS011;10871;50.144;8.428;2022-12-07T13:06:51;3.75;;;2.33;;
21420;SDS011;10871;50.144;8.428;2022-12-07T13:09:19;2.80;;;1.88;;
21420;SDS011;10871;50.144;8.428;2022-12-07T13:11:47;3.58;;;2.28;;
21420;SDS011;10871;50.144;8.428;2022-12-07T13:16:59;5.57;;;2.53;;
21420;SDS011;10871;50.144;8.428;2022-12-07T13:22:34;4.90;;;2.30;;
21420;SDS011;10871;50.144;8.428;2022-12-07T13:24:55;6.50;;;2.72;;
21420;SDS011;10871;50.144;8.428;2022-12-07T13:27:22;4.60;;;2.83;;
21420;SDS011;10871;50.144;8.428;2022-12-07T13:29:49;5.18;;;2.70;;
21420;SDS011;10871;50.144;8.428;2022-12-07T13:32:23;6.95;;;3.55;;
21420;SDS011;10871;50.144;8.428;2022-12-07T13:34:50;5.25;;;2.95;;
21420;SDS011;10871;50.144;8.428;2022-12-07T13:39:47;4.57;;;3.08;;
21420;SDS011;10871;50.144;8.428;2022-12-07T13:42:18;6.82;;;3.17;;
21420;SDS011;10871;50.144;8.428;2022-12-07T13:44:45;5.25;;;3.05;;
21420;SDS011;10871;50.144;8.428;2022-12-07T13:47:13;7.32;;;3.50;;
21420;SDS011;10871;50.144;8.428;2022-12-07T13:49:49;4.63;;;2.58;;
21420;SDS011;10871;50.144;8.428;2022-12-07T13:54:46;6.45;;;2.85;;
21420;SDS011;10871;50.144;8.428;2022-12-07T13:57:13;8.52;;;3.13;;
21420;SDS011;10871;50.144;8.428;2022-12-07T13:59:39;8.10;;;4.25;;
21420;SDS011;10871;50.144;8.428;2022-12-07T14:02:22;8.07;;;2.90;;
21420;SDS011;10871;50.144;8.428;2022-12-07T14:05:22;5.47;;;3.60;;
21420;SDS011;10871;50.144;8.428;2022-12-07T14:07:53;8.43;;;3.80;;
21420;SDS011;10871;50.144;8.428;2022-12-07T14:12:54;5.20;;;3.97;;
21420;SDS011;10871;50.144;8.428;2022-12-07T14:15:26;5.10;;;3.63;;
21420;SDS011;10871;50.144;8.428;2022-12-07T14:17:53;7.80;;;3.60;;
21420;SDS011;10871;50.144;8.428;2022-12-07T14:20:30;4.47;;;3.67;;
21420;SDS011;10871;50.144;8.428;2022-12-07T14:22:57;6.85;;;3.83;;
21420;SDS011;10871;50.144;8.428;2022-12-07T14:25:24;4.68;;;3.30;;
21420;SDS011;10871;50.144;8.428;2022-12-07T14:27:55;6.18;;;3.92;;
21420;SDS011;10871;50.144;8.428;2022-12-07T14:30:23;15.25;;;5.60;;
21420;SDS011;10871;50.144;8.428;2022-12-07T14:32:54;7.63;;;4.40;;
21420;SDS011;10871;50.144;8.428;2022-12-07T14:35:20;9.43;;;4.10;;
21420;SDS011;10871;50.144;8.428;2022-12-07T14:37:47;9.73;;;5.32;;
21420;SDS011;10871;50.144;8.428;2022-12-07T14:40:16;9.77;;;6.68;;
21420;SDS011;10871;50.144;8.428;2022-12-07T14:42:43;8.57;;;5.40;;
21420;SDS011;10871;50.144;8.428;2022-12-07T14:45:13;7.35;;;4.80;;
21420;SDS011;10871;50.144;8.428;2022-12-07T14:47:40;6.63;;;4.35;;
21420;SDS011;10871;50.144;8.428;2022-12-07T14:50:26;8.00;;;3.60;;
21420;SDS011;10871;50.144;8.428;2022-12-07T14:52:58;6.03;;;3.45;;
21420;SDS011;10871;50.144;8.428;2022-12-07T14:55:45;7.07;;;4.35;;
21420;SDS011;10871;50.144;8.428;2022-12-07T14:58:13;6.15;;;4.10;;
21420;SDS011;10871;50.144;8.428;2022-12-07T15:00:39;6.35;;;3.33;;
21420;SDS011;10871;50.144;8.428;2022-12-07T15:03:06;10.38;;;3.83;;
21420;SDS011;10871;50.144;8.428;2022-12-07T15:05:32;6.68;;;3.58;;
21420;SDS011;10871;50.144;8.428;2022-12-07T15:07:59;8.90;;;3.83;;
21420;SDS011;10871;50.144;8.428;2022-12-07T15:10:26;6.38;;;4.03;;
21420;SDS011;10871;50.144;8.428;2022-12-07T15:12:56;4.88;;;3.40;;
21420;SDS011;10871;50.144;8.428;2022-12-07T15:15:42;6.53;;;3.63;;
21420;SDS011;10871;50.144;8.428;2022-12-07T15:18:09;6.85;;;3.53;;
21420;SDS011;10871;50.144;8.428;2022-12-07T15:20:35;5.05;;;3.15;;
21420;SDS011;10871;50.144;8.428;2022-12-07T15:23:01;6.57;;;3.03;;
21420;SDS011;10871;50.144;8.428;2022-12-07T15:25:27;6.25;;;2.90;;
21420;SDS011;10871;50.144;8.428;2022-12-07T15:27:54;5.78;;;2.83;;
21420;SDS011;10871;50.144;8.428;2022-12-07T15:30:20;6.22;;;3.10;;
21420;SDS011;10871;50.144;8.428;2022-12-07T15:32:52;5.63;;;3.65;;
21420;SDS011;10871;50.144;8.428;2022-12-07T15:35:19;9.70;;;3.97;;
21420;SDS011;10871;50.144;8.428;2022-12-07T15:37:45;5.28;;;3.50;;
21420;SDS011;10871;50.144;8.428;2022-12-07T15:40:12;10.27;;;3.60;;
21420;SDS011;10871;50.144;8.428;2022-12-07T15:42:39;6.63;;;4.55;;
21420;SDS011;10871;50.144;8.428;2022-12-07T15:45:06;8.80;;;4.68;;
21420;SDS011;10871;50.144;8.428;2022-12-07T15:47:34;9.85;;;5.03;;
21420;SDS011;10871;50.144;8.428;2022-12-07T15:50:22;9.27;;;4.55;;
21420;SDS011;10871;50.144;8.428;2022-12-07T15:52:48;9.27;;;4.60;;
21420;SDS011;10871;50.144;8.428;2022-12-07T15:55:15;7.68;;;4.80;;
21420;SDS011;10871;50.144;8.428;2022-12-07T15:57:41;8.75;;;5.13;;
21420;SDS011;10871;50.144;8.428;2022-12-07T16:00:08;11.15;;;5.47;;
21420;SDS011;10871;50.144;8.428;2022-12-07T16:02:37;10.30;;;5.35;;
21420;SDS011;10871;50.144;8.428;2022-12-07T16:05:05;7.95;;;4.75;;
21420;SDS011;10871;50.144;8.428;2022-12-07T16:07:32;9.55;;;4.75;;
21420;SDS011;10871;50.144;8.428;2022-12-07T16:09:58;10.82;;;6.00;;
21420;SDS011;10871;50.144;8.428;2022-12-07T16:12:24;10.95;;;7.03;;
21420;SDS011;10871;50.144;8.428;2022-12-07T16:14:51;14.50;;;9.45;;
21420;SDS011;10871;50.144;8.428;2022-12-07T16:17:17;14.90;;;8.48;;
21420;SDS011;10871;50.144;8.428;2022-12-07T16:19:44;16.90;;;7.65;;
21420;SDS011;10871;50.144;8.428;2022-12-07T16:22:10;10.00;;;6.55;;
21420;SDS011;10871;50.144;8.428;2022-12-07T16:24:36;10.68;;;6.32;;
21420;SDS011;10871;50.144;8.428;2022-12-07T16:27:03;8.80;;;5.70;;
21420;SDS011;10871;50.144;8.428;2022-12-07T16:29:29;15.65;;;7.50;;
21420;SDS011;10871;50.144;8.428;2022-12-07T16:31:55;15.30;;;8.00;;
21420;SDS011;10871;50.144;8.428;2022-12-07T16:34:22;9.32;;;6.00;;